Weather Data

Pearl Creek Farm: 8878 N Farm Road 75, Walnut Grove MO 65770

<== Previous Day (Thursday 28 Jun 2018) | Next Day (Saturday 30 Jun 2018) ==>

Summary Precipitation Data For Friday 29 June 2018

ElementValueUnits
Precipitation0"
Notes(none)
SourcePearl Creek Farm

Summary Temperature Data For Friday 29 June 2018

ElementValueUnits
High Temperature94 oF
Low Temperature74 oF
Average Temperature85 oF
High Humidity88 %
Low Humidity46 %
Average Humidity65 %
SourceSpringfield-Branson National Airport (SGF)

Detail Temperature Data For Friday 29 June 2018

Date / TimeTemp (F)RH (%)Dew Pt (F)Report Date / TimeSource
2018-06-29 00:52:00 78 76 70.0 2019-02-02 11:24:24.260017 Springfield-Branson National Airport (SGF)
2018-06-29 01:52:00 77 79 70.0 2019-02-02 11:24:24.260017 Springfield-Branson National Airport (SGF)
2018-06-29 02:52:00 78 76 70.0 2019-02-02 11:24:24.260017 Springfield-Branson National Airport (SGF)
2018-06-29 03:52:00 78 76 70.0 2019-02-02 11:24:24.260017 Springfield-Branson National Airport (SGF)
2018-06-29 04:52:00 74 88 70.0 2019-02-02 11:24:24.260017 Springfield-Branson National Airport (SGF)
2018-06-29 05:52:00 77 79 70.0 2019-02-02 11:24:24.260017 Springfield-Branson National Airport (SGF)
2018-06-29 06:52:00 80 76 72.0 2019-02-02 11:24:24.260017 Springfield-Branson National Airport (SGF)
2018-06-29 07:52:00 82 69 71.0 2019-02-02 11:24:24.260017 Springfield-Branson National Airport (SGF)
2018-06-29 08:52:00 85 63 71.0 2019-02-02 11:24:24.260017 Springfield-Branson National Airport (SGF)
2018-06-29 09:52:00 88 55 70.0 2019-02-02 11:24:24.260017 Springfield-Branson National Airport (SGF)
2018-06-29 10:52:00 90 56 72.0 2019-02-02 11:24:24.260017 Springfield-Branson National Airport (SGF)
2018-06-29 11:52:00 92 51 71.0 2019-02-02 11:24:24.260017 Springfield-Branson National Airport (SGF)
2018-06-29 12:52:00 93 49 71.0 2019-02-02 11:24:24.260017 Springfield-Branson National Airport (SGF)
2018-06-29 13:52:00 93 49 71.0 2019-02-02 11:24:24.260017 Springfield-Branson National Airport (SGF)
2018-06-29 14:52:00 94 48 71.0 2019-02-02 11:24:24.260017 Springfield-Branson National Airport (SGF)
2018-06-29 15:52:00 94 48 71.0 2019-02-02 11:24:24.260017 Springfield-Branson National Airport (SGF)
2018-06-29 16:52:00 94 46 70.0 2019-02-02 11:24:24.260017 Springfield-Branson National Airport (SGF)
2018-06-29 17:52:00 91 57 74.0 2019-02-02 11:24:24.260017 Springfield-Branson National Airport (SGF)
2018-06-29 18:52:00 88 63 74.0 2019-02-02 11:24:24.260017 Springfield-Branson National Airport (SGF)
2018-06-29 19:52:00 86 65 73.0 2019-02-02 11:24:24.260017 Springfield-Branson National Airport (SGF)
2018-06-29 20:52:00 85 68 73.0 2019-02-02 11:24:24.260017 Springfield-Branson National Airport (SGF)
2018-06-29 21:52:00 83 70 72.0 2019-02-02 11:24:24.260017 Springfield-Branson National Airport (SGF)
2018-06-29 22:52:00 83 70 72.0 2019-02-02 11:24:24.260017 Springfield-Branson National Airport (SGF)
2018-06-29 23:52:00 81 74 72.0 2019-02-02 11:24:24.260017 Springfield-Branson National Airport (SGF)

A total of 24 rows are displayed.